createdAt,value
2022-12-15T06:56:03.572Z,89.28
2022-12-15T06:58:32.840Z,89.59
2022-12-15T07:01:08.087Z,89.85
2022-12-15T07:03:36.747Z,89.43
2022-12-15T07:06:07.244Z,89.22
2022-12-15T07:08:41.175Z,89.12
2022-12-15T07:11:13.477Z,88.32
2022-12-15T07:13:42.918Z,88.88
2022-12-15T07:16:12.549Z,88.76
2022-12-15T07:18:40.790Z,88.03
2022-12-15T07:21:10.854Z,87.32
2022-12-15T07:23:54.003Z,86.66
2022-12-15T07:26:24.796Z,87.08
2022-12-15T07:28:52.886Z,87.18
2022-12-15T07:31:20.719Z,86.59
2022-12-15T07:33:49.335Z,86.20
2022-12-15T07:36:17.191Z,86.72
2022-12-15T07:38:50.799Z,86.41
2022-12-15T07:41:20.048Z,86.97
2022-12-15T07:43:49.757Z,86.62
2022-12-15T07:46:17.930Z,86.93
2022-12-15T07:48:50.297Z,85.68
2022-12-15T07:51:20.915Z,85.92
2022-12-15T07:53:51.075Z,88.00
2022-12-15T07:56:20.411Z,90.54
2022-12-15T07:58:49.671Z,88.98
2022-12-15T08:01:17.972Z,86.15
2022-12-15T08:03:46.254Z,84.33
2022-12-15T08:06:16.342Z,84.74
2022-12-15T08:08:50.816Z,84.87
2022-12-15T08:11:21.006Z,84.41
2022-12-15T08:14:10.574Z,85.51
2022-12-15T08:16:38.521Z,85.37
2022-12-15T08:19:07.737Z,84.97
2022-12-15T08:21:36.038Z,84.09
2022-12-15T08:24:04.242Z,83.69
2022-12-15T08:26:32.343Z,83.49
2022-12-15T08:31:54.750Z,84.42
2022-12-15T08:34:22.515Z,84.02
2022-12-15T08:36:50.175Z,84.41
2022-12-15T08:39:18.065Z,84.15
2022-12-15T08:41:46.171Z,83.83
2022-12-15T08:44:16.711Z,83.98
2022-12-15T08:46:44.351Z,84.98
2022-12-15T08:49:15.345Z,85.69
2022-12-15T08:51:47.367Z,86.08
2022-12-15T08:54:19.106Z,85.45
2022-12-15T08:56:47.368Z,85.91
2022-12-15T08:59:32.984Z,86.74
2022-12-15T09:02:03.293Z,85.86
2022-12-15T09:04:31.160Z,86.13
2022-12-15T09:06:59.180Z,86.10
2022-12-15T09:09:26.751Z,87.30
2022-12-15T09:11:55.651Z,86.37
2022-12-15T09:14:29.083Z,85.72
2022-12-15T09:16:59.401Z,86.95
2022-12-15T09:19:27.939Z,85.60
2022-12-15T09:21:55.686Z,85.51
2022-12-15T09:24:32.501Z,85.92
2022-12-15T09:27:05.099Z,85.01
2022-12-15T09:29:34.997Z,84.45
2022-12-15T09:32:06.498Z,82.86
2022-12-15T09:34:36.945Z,81.80
2022-12-15T09:37:04.626Z,82.43
2022-12-15T09:39:32.440Z,82.57
2022-12-15T09:42:02.524Z,82.10
2022-12-15T09:44:33.062Z,81.31
2022-12-15T09:47:12.043Z,81.71
2022-12-15T09:49:55.761Z,82.40
2022-12-15T09:52:26.856Z,82.41
2022-12-15T09:54:56.376Z,83.01
2022-12-15T09:57:32.901Z,82.91
2022-12-15T10:00:22.176Z,82.00
2022-12-15T10:03:18.383Z,81.45
2022-12-15T10:06:16.119Z,82.53
2022-12-15T10:08:57.676Z,82.95
2022-12-15T10:11:41.353Z,81.96
2022-12-15T10:14:22.649Z,82.47
2022-12-15T10:17:01.055Z,82.57
2022-12-15T10:19:50.096Z,83.13
2022-12-15T10:22:26.200Z,83.56
2022-12-15T10:27:59.807Z,84.08
2022-12-15T10:30:27.757Z,83.56
2022-12-15T10:33:02.731Z,83.96
2022-12-15T10:35:33.969Z,84.31
2022-12-15T10:38:03.859Z,84.90
2022-12-15T10:40:53.051Z,85.20
2022-12-15T10:43:35.436Z,84.83
2022-12-15T10:46:08.964Z,85.16
2022-12-15T10:48:38.041Z,86.33
2022-12-15T10:51:22.708Z,85.23
2022-12-15T10:53:53.894Z,85.76
2022-12-15T10:56:32.809Z,85.68
2022-12-15T10:59:04.977Z,84.07
2022-12-15T11:01:35.802Z,82.96
2022-12-15T11:04:03.933Z,83.42
2022-12-15T11:06:36.750Z,82.15
2022-12-15T11:09:34.349Z,82.08
2022-12-15T11:12:20.492Z,81.96
2022-12-15T11:14:51.135Z,81.65
2022-12-15T11:17:20.545Z,81.27
2022-12-15T11:20:01.950Z,80.38
2022-12-15T11:22:41.161Z,81.61
2022-12-15T11:25:21.166Z,81.50
2022-12-15T11:27:51.414Z,81.16
2022-12-15T11:30:22.147Z,81.17
2022-12-15T11:32:53.499Z,82.11
2022-12-15T11:35:39.017Z,81.66
2022-12-15T11:38:19.968Z,81.41
2022-12-15T11:40:47.613Z,80.44
2022-12-15T11:43:52.876Z,80.59
2022-12-15T11:46:23.152Z,80.62
2022-12-15T11:49:13.899Z,81.07
2022-12-15T11:51:45.247Z,81.70
2022-12-15T11:54:24.640Z,82.06
2022-12-15T11:57:00.609Z,82.20
2022-12-15T11:59:39.203Z,81.58
2022-12-15T12:02:39.864Z,81.58
2022-12-15T12:05:28.072Z,81.78
2022-12-15T12:08:06.591Z,81.64
2022-12-15T12:10:45.636Z,81.14
2022-12-15T12:13:25.480Z,81.44
2022-12-15T12:16:04.225Z,81.95
2022-12-15T12:18:37.371Z,81.59
2022-12-15T12:21:10.172Z,82.23
2022-12-15T12:23:43.554Z,81.37
2022-12-15T12:26:20.045Z,82.07
2022-12-15T12:28:54.438Z,83.09
2022-12-15T12:31:45.147Z,82.26
2022-12-15T12:34:19.052Z,82.51
2022-12-15T12:36:49.873Z,82.31
2022-12-15T12:39:21.713Z,82.42
2022-12-15T12:41:59.176Z,81.67
2022-12-15T12:44:32.512Z,82.22
2022-12-15T12:47:10.033Z,82.64
2022-12-15T12:49:44.979Z,83.35
2022-12-15T12:52:21.182Z,83.56
2022-12-15T12:54:59.228Z,83.31
2022-12-15T12:57:39.458Z,83.89
2022-12-15T13:00:23.438Z,84.07
2022-12-15T13:03:20.090Z,83.79
2022-12-15T13:05:50.851Z,83.65
2022-12-15T13:08:51.255Z,84.05
2022-12-15T13:12:14.849Z,83.73
2022-12-15T13:14:51.715Z,84.62
2022-12-15T13:17:31.423Z,84.79
2022-12-15T13:20:23.354Z,83.99
2022-12-15T13:22:52.112Z,84.28
2022-12-15T13:25:39.101Z,84.50
2022-12-15T13:28:20.829Z,85.22
2022-12-15T13:31:41.788Z,84.93
2022-12-15T13:34:26.496Z,84.92
2022-12-15T13:36:59.361Z,85.94
2022-12-15T13:39:58.226Z,86.05
2022-12-15T13:42:45.633Z,86.71
2022-12-15T13:45:45.283Z,85.94
2022-12-15T13:48:36.009Z,84.33
2022-12-15T13:51:25.568Z,84.57
2022-12-15T13:53:58.508Z,84.27
2022-12-15T13:56:50.772Z,83.52
2022-12-15T13:59:27.236Z,84.01
2022-12-15T14:01:55.524Z,85.24
2022-12-15T14:04:23.464Z,85.96
2022-12-15T14:06:57.061Z,85.95
2022-12-15T14:09:29.779Z,85.57
2022-12-15T14:11:58.764Z,85.46
2022-12-15T14:14:32.297Z,85.44
2022-12-15T14:17:02.269Z,85.34
2022-12-15T14:19:39.836Z,84.78
2022-12-15T14:22:27.166Z,84.72
2022-12-15T14:25:02.398Z,86.17
2022-12-15T14:27:32.575Z,86.50
2022-12-15T14:30:25.481Z,85.71
2022-12-15T14:32:56.922Z,86.39
2022-12-15T14:35:30.084Z,86.01
2022-12-15T14:38:02.383Z,85.74
2022-12-15T14:40:31.290Z,86.03
2022-12-15T14:43:00.495Z,87.00
2022-12-15T14:45:31.764Z,86.70
2022-12-15T14:48:39.550Z,87.20
2022-12-15T14:50:52.021Z,87.93
2022-12-15T14:53:24.517Z,87.47
2022-12-15T14:55:54.851Z,87.61
2022-12-15T14:58:32.303Z,87.91
2022-12-15T15:01:03.038Z,87.65
2022-12-15T15:03:06.626Z,84.28
2022-12-15T15:03:37.107Z,87.52
2022-12-15T15:06:08.012Z,87.12
2022-12-15T15:08:46.653Z,87.92
2022-12-15T15:11:25.460Z,88.19
2022-12-15T15:13:56.634Z,87.17
2022-12-15T15:16:24.708Z,87.95
2022-12-15T15:18:54.516Z,88.80
2022-12-15T15:21:24.880Z,88.99
2022-12-15T15:24:01.380Z,88.72
2022-12-15T15:26:31.233Z,89.24
2022-12-15T15:28:59.450Z,89.19
2022-12-15T15:31:40.762Z,89.70
2022-12-15T15:34:09.683Z,89.70
2022-12-15T15:36:41.635Z,90.01
2022-12-15T15:39:16.854Z,89.43
2022-12-15T15:41:44.937Z,88.43
2022-12-15T15:44:14.821Z,89.04
2022-12-15T15:46:47.800Z,89.60
2022-12-15T15:49:19.185Z,90.52
2022-12-15T15:51:47.020Z,90.93
2022-12-15T15:54:22.929Z,91.05
2022-12-15T15:56:50.814Z,90.62
2022-12-15T15:59:21.630Z,90.42
2022-12-15T16:01:54.381Z,90.45
2022-12-15T16:04:22.198Z,91.45
2022-12-15T16:06:52.096Z,90.88
2022-12-15T16:09:22.647Z,90.44
2022-12-15T16:11:50.700Z,91.27
2022-12-15T16:14:18.954Z,90.90
2022-12-15T16:16:48.166Z,91.27
2022-12-15T16:19:16.032Z,91.39
2022-12-15T16:21:44.740Z,91.74
2022-12-15T16:24:19.389Z,91.78
2022-12-15T16:26:55.640Z,92.09
2022-12-15T16:29:24.753Z,91.17
2022-12-15T16:31:52.450Z,90.78
2022-12-15T16:34:21.648Z,90.34
2022-12-15T16:36:57.525Z,88.95
2022-12-15T16:39:27.674Z,89.14
2022-12-15T16:41:57.730Z,89.19
2022-12-15T16:44:29.243Z,89.07
2022-12-15T16:46:57.220Z,89.48
2022-12-15T16:49:25.216Z,89.85
2022-12-15T16:51:54.598Z,89.54
2022-12-15T16:54:25.821Z,89.50
2022-12-15T16:56:54.436Z,90.38
2022-12-15T16:59:35.062Z,90.29
2022-12-15T17:02:18.284Z,89.63
2022-12-15T17:04:46.263Z,89.14
2022-12-15T17:07:19.947Z,90.14
2022-12-15T17:09:48.180Z,90.09
2022-12-15T17:12:17.417Z,89.10
2022-12-15T17:14:46.405Z,89.81
2022-12-15T17:17:15.565Z,89.90
2022-12-15T17:19:57.990Z,89.06
2022-12-15T17:22:32.686Z,89.44
2022-12-15T17:25:00.346Z,88.06
2022-12-15T17:27:30.333Z,88.42
2022-12-15T17:30:01.079Z,88.05
2022-12-15T17:32:28.620Z,88.85
2022-12-15T17:34:56.525Z,88.90
2022-12-15T17:37:26.955Z,88.98
2022-12-15T17:39:56.865Z,89.00
2022-12-15T17:42:24.452Z,88.63
2022-12-15T17:44:52.234Z,88.32
2022-12-15T17:47:21.396Z,88.92
2022-12-15T17:49:50.590Z,89.55
2022-12-15T17:52:25.397Z,89.40
2022-12-15T17:54:53.693Z,88.97
2022-12-15T17:57:21.485Z,88.66
2022-12-15T17:59:49.619Z,88.56
2022-12-15T18:02:17.379Z,87.72
2022-12-15T18:04:46.928Z,87.58
2022-12-15T18:07:19.228Z,87.75
2022-12-15T18:09:47.778Z,88.04
2022-12-15T18:12:19.569Z,87.53
2022-12-15T18:14:48.780Z,87.29
2022-12-15T18:17:16.618Z,88.23
2022-12-15T18:19:45.895Z,88.54
2022-12-15T18:22:15.788Z,88.42
2022-12-15T18:24:43.573Z,87.16
2022-12-15T18:27:21.474Z,86.33
2022-12-15T18:29:49.654Z,85.88
2022-12-15T18:32:20.340Z,86.13
2022-12-15T18:34:49.927Z,86.27
2022-12-15T18:37:18.578Z,86.28
2022-12-15T18:39:46.516Z,86.27
2022-12-15T18:42:16.310Z,86.09
2022-12-15T18:44:48.436Z,85.68
2022-12-15T18:47:17.591Z,85.76
2022-12-15T18:49:45.752Z,85.50
2022-12-15T18:52:18.578Z,86.35
2022-12-15T18:54:47.476Z,85.37
2022-12-15T18:57:27.415Z,85.79
2022-12-15T18:59:58.343Z,85.45
2022-12-15T19:02:26.116Z,85.54
2022-12-15T19:04:53.996Z,84.97
2022-12-15T19:07:23.157Z,85.48
2022-12-15T19:09:51.172Z,84.87
2022-12-15T19:12:19.110Z,84.89
2022-12-15T19:14:48.993Z,85.29
2022-12-15T19:17:36.870Z,84.57
2022-12-15T19:20:38.600Z,85.51
2022-12-15T19:23:08.191Z,85.38
2022-12-15T19:25:36.514Z,85.50
2022-12-15T19:28:04.377Z,85.05
2022-12-15T19:30:38.633Z,84.27
2022-12-15T19:33:11.155Z,84.90
2022-12-15T19:35:41.187Z,84.09
2022-12-15T19:38:19.896Z,84.26
2022-12-15T19:40:48.481Z,83.81
2022-12-15T19:43:17.680Z,84.23
2022-12-15T19:45:45.607Z,83.25
2022-12-15T19:48:14.996Z,83.85
2022-12-15T19:50:44.689Z,84.29
2022-12-15T19:53:24.002Z,84.40
2022-12-15T19:55:55.189Z,82.67
2022-12-15T19:58:28.496Z,82.95
2022-12-15T20:00:57.993Z,82.26
2022-12-15T20:03:27.746Z,82.85
2022-12-15T20:05:56.996Z,83.16
2022-12-15T20:08:28.600Z,81.95
2022-12-15T20:10:57.194Z,82.22
2022-12-15T20:13:26.302Z,81.42
2022-12-15T20:15:54.545Z,81.39
2022-12-15T20:18:22.186Z,80.71
2022-12-15T20:20:51.932Z,81.02
2022-12-15T20:23:21.971Z,80.66
2022-12-15T20:25:51.270Z,80.21
2022-12-15T20:28:22.747Z,80.08
2022-12-15T20:30:50.973Z,79.69
2022-12-15T20:33:19.253Z,79.06
2022-12-15T20:35:49.007Z,78.81
2022-12-15T20:38:20.891Z,79.25
2022-12-15T20:40:48.782Z,79.08
2022-12-15T20:43:20.462Z,79.08
2022-12-15T20:45:53.313Z,77.76
2022-12-15T20:48:25.770Z,78.63
2022-12-15T20:50:53.737Z,78.09
2022-12-15T20:53:23.854Z,77.00
2022-12-15T20:55:54.114Z,77.44
2022-12-15T20:58:27.051Z,77.18
2022-12-15T21:00:57.764Z,77.05
2022-12-15T21:03:27.459Z,78.28
2022-12-15T21:05:57.146Z,78.00
2022-12-15T21:08:28.373Z,77.90
2022-12-15T21:11:01.488Z,78.11
2022-12-15T21:13:33.169Z,78.85
2022-12-15T21:16:02.360Z,79.05
2022-12-15T21:21:25.309Z,78.15
2022-12-15T21:23:54.711Z,78.78
2022-12-15T21:26:24.598Z,79.17
2022-12-15T21:28:57.311Z,79.33
2022-12-15T21:31:26.504Z,79.72
2022-12-15T21:33:54.860Z,79.81
2022-12-15T21:36:24.486Z,81.19
2022-12-15T21:38:53.569Z,80.81
2022-12-15T21:41:24.437Z,81.14
2022-12-15T21:44:00.645Z,81.30
2022-12-15T21:46:29.322Z,81.92
2022-12-15T21:49:17.514Z,81.55
2022-12-15T21:51:47.724Z,80.22
2022-12-15T21:54:19.562Z,80.61
2022-12-15T21:56:48.454Z,80.71
2022-12-15T21:59:19.283Z,79.97
2022-12-15T22:01:47.385Z,80.06
2022-12-15T22:04:19.874Z,81.25
2022-12-15T22:06:50.595Z,80.59
2022-12-15T22:09:18.918Z,81.95
2022-12-15T22:11:50.705Z,81.54
2022-12-15T22:14:27.406Z,81.79
2022-12-15T22:16:55.570Z,81.05
2022-12-15T22:19:24.084Z,81.51
2022-12-15T22:21:55.548Z,82.39
2022-12-15T22:24:23.185Z,82.18
2022-12-15T22:26:51.134Z,81.48
2022-12-15T22:29:22.138Z,81.37
2022-12-15T22:31:50.660Z,81.72
2022-12-15T22:34:21.565Z,82.14
2022-12-15T22:36:49.974Z,82.76
2022-12-15T22:39:18.871Z,82.73
2022-12-15T22:41:49.864Z,81.81
2022-12-15T22:44:20.704Z,81.69
2022-12-15T22:46:50.934Z,80.62
2022-12-15T22:49:21.204Z,81.43
2022-12-15T22:51:49.106Z,80.99
2022-12-15T22:54:23.129Z,81.72
2022-12-15T22:56:54.828Z,81.07
2022-12-15T22:59:28.597Z,80.73
2022-12-15T23:01:57.800Z,80.91
2022-12-15T23:04:26.170Z,81.98
2022-12-15T23:06:53.840Z,81.32
2022-12-15T23:09:22.547Z,82.27
2022-12-15T23:11:49.167Z,82.07
2022-12-15T23:14:18.632Z,81.97
2022-12-15T23:16:46.452Z,81.35
2022-12-15T23:19:23.796Z,82.25
2022-12-15T23:21:51.772Z,82.28
2022-12-15T23:24:19.963Z,82.32
2022-12-15T23:26:47.513Z,82.35
2022-12-15T23:29:15.192Z,82.34
2022-12-15T23:31:43.146Z,82.84
2022-12-15T23:34:11.374Z,82.89
2022-12-15T23:36:40.375Z,82.22
2022-12-15T23:39:07.905Z,82.09
2022-12-15T23:41:36.181Z,82.52
2022-12-15T23:44:04.002Z,83.06
2022-12-15T23:46:31.662Z,82.51
2022-12-15T23:48:59.806Z,83.46
2022-12-15T23:51:27.417Z,82.19
2022-12-15T23:53:57.607Z,82.73
2022-12-15T23:56:25.563Z,82.93
2022-12-15T23:58:55.760Z,82.31
